sensor_id;sensor_type;location;lat;lon;timestamp;temperature;humidity
63537;DHT22;49686;51.880;5.632;2023-07-20T00:01:33;15.90;99.90
63537;DHT22;49686;51.880;5.632;2023-07-20T00:04:00;15.90;99.90
63537;DHT22;49686;51.880;5.632;2023-07-20T00:06:27;15.90;99.90
63537;DHT22;49686;51.880;5.632;2023-07-20T00:08:54;16.00;99.90
63537;DHT22;49686;51.880;5.632;2023-07-20T00:11:26;15.90;99.90
63537;DHT22;49686;51.880;5.632;2023-07-20T00:13:53;15.90;99.90
63537;DHT22;49686;51.880;5.632;2023-07-20T00:16:23;15.90;99.90
63537;DHT22;49686;51.880;5.632;2023-07-20T00:18:50;15.80;99.90
63537;DHT22;49686;51.880;5.632;2023-07-20T00:21:17;15.70;99.90
63537;DHT22;49686;51.880;5.632;2023-07-20T00:23:44;15.70;99.90
63537;DHT22;49686;51.880;5.632;2023-07-20T00:26:11;15.60;99.90
63537;DHT22;49686;51.880;5.632;2023-07-20T00:28:39;15.60;99.90
63537;DHT22;49686;51.880;5.632;2023-07-20T00:31:06;15.50;99.90
63537;DHT22;49686;51.880;5.632;2023-07-20T00:33:33;15.50;99.90
63537;DHT22;49686;51.880;5.632;2023-07-20T00:35:59;15.50;99.90
63537;DHT22;49686;51.880;5.632;2023-07-20T00:38:26;15.40;99.90
63537;DHT22;49686;51.880;5.632;2023-07-20T00:40:53;15.40;99.90
63537;DHT22;49686;51.880;5.632;2023-07-20T00:43:20;15.40;99.90
63537;DHT22;49686;51.880;5.632;2023-07-20T00:45:48;15.40;99.90
63537;DHT22;49686;51.880;5.632;2023-07-20T00:48:15;15.50;99.90
63537;DHT22;49686;51.880;5.632;2023-07-20T00:50:42;15.50;99.90
63537;DHT22;49686;51.880;5.632;2023-07-20T00:53:10;15.50;99.90
63537;DHT22;49686;51.880;5.632;2023-07-20T00:55:37;15.50;99.90
63537;DHT22;49686;51.880;5.632;2023-07-20T00:58:04;15.40;99.90
63537;DHT22;49686;51.880;5.632;2023-07-20T01:00:31;15.40;99.90
63537;DHT22;49686;51.880;5.632;2023-07-20T01:02:59;15.40;99.90
63537;DHT22;49686;51.880;5.632;2023-07-20T01:05:36;15.40;99.90
63537;DHT22;49686;51.880;5.632;2023-07-20T01:08:09;15.40;99.90
63537;DHT22;49686;51.880;5.632;2023-07-20T01:10:43;15.40;99.90
63537;DHT22;49686;51.880;5.632;2023-07-20T01:13:11;15.50;99.90
63537;DHT22;49686;51.880;5.632;2023-07-20T01:15:40;15.40;99.90
63537;DHT22;49686;51.880;5.632;2023-07-20T01:18:08;15.40;99.90
63537;DHT22;49686;51.880;5.632;2023-07-20T01:20:35;15.40;99.90
63537;DHT22;49686;51.880;5.632;2023-07-20T01:23:34;15.40;99.90
63537;DHT22;49686;51.880;5.632;2023-07-20T01:26:17;15.40;99.90
63537;DHT22;49686;51.880;5.632;2023-07-20T01:29:03;15.40;99.90
63537;DHT22;49686;51.880;5.632;2023-07-20T01:31:36;15.30;99.90
63537;DHT22;49686;51.880;5.632;2023-07-20T01:34:06;15.30;99.90
63537;DHT22;49686;51.880;5.632;2023-07-20T01:36:36;15.30;99.90
63537;DHT22;49686;51.880;5.632;2023-07-20T01:39:04;15.30;99.90
63537;DHT22;49686;51.880;5.632;2023-07-20T01:41:33;15.30;99.90
63537;DHT22;49686;51.880;5.632;2023-07-20T01:44:00;15.30;99.90
63537;DHT22;49686;51.880;5.632;2023-07-20T01:46:30;15.30;99.90
63537;DHT22;49686;51.880;5.632;2023-07-20T01:48:58;15.30;99.90
63537;DHT22;49686;51.880;5.632;2023-07-20T01:51:25;15.30;99.90
63537;DHT22;49686;51.880;5.632;2023-07-20T01:53:52;15.20;99.90
63537;DHT22;49686;51.880;5.632;2023-07-20T01:56:19;15.10;99.90
63537;DHT22;49686;51.880;5.632;2023-07-20T01:58:46;15.10;99.90
63537;DHT22;49686;51.880;5.632;2023-07-20T02:01:13;15.00;99.90
63537;DHT22;49686;51.880;5.632;2023-07-20T02:03:40;14.90;99.90
63537;DHT22;49686;51.880;5.632;2023-07-20T02:06:08;14.90;99.90
63537;DHT22;49686;51.880;5.632;2023-07-20T02:08:35;14.80;99.90
63537;DHT22;49686;51.880;5.632;2023-07-20T02:11:02;14.80;99.90
63537;DHT22;49686;51.880;5.632;2023-07-20T02:13:29;14.70;99.90
63537;DHT22;49686;51.880;5.632;2023-07-20T02:15:56;14.70;99.90
63537;DHT22;49686;51.880;5.632;2023-07-20T02:18:23;14.60;99.90
63537;DHT22;49686;51.880;5.632;2023-07-20T02:20:52;14.60;99.90
63537;DHT22;49686;51.880;5.632;2023-07-20T02:23:21;14.60;99.90
63537;DHT22;49686;51.880;5.632;2023-07-20T02:25:48;14.60;99.90
63537;DHT22;49686;51.880;5.632;2023-07-20T02:28:15;14.60;99.90
63537;DHT22;49686;51.880;5.632;2023-07-20T02:30:42;14.50;99.90
63537;DHT22;49686;51.880;5.632;2023-07-20T02:33:08;14.50;99.90
63537;DHT22;49686;51.880;5.632;2023-07-20T02:35:35;14.40;99.90
63537;DHT22;49686;51.880;5.632;2023-07-20T02:38:02;14.40;99.90
63537;DHT22;49686;51.880;5.632;2023-07-20T02:40:30;14.30;99.90
63537;DHT22;49686;51.880;5.632;2023-07-20T02:42:57;14.30;99.90
63537;DHT22;49686;51.880;5.632;2023-07-20T02:45:24;14.20;99.90
63537;DHT22;49686;51.880;5.632;2023-07-20T02:47:51;14.10;99.90
63537;DHT22;49686;51.880;5.632;2023-07-20T02:50:18;14.00;99.90
63537;DHT22;49686;51.880;5.632;2023-07-20T02:52:45;13.90;99.90
63537;DHT22;49686;51.880;5.632;2023-07-20T02:55:12;13.80;99.90
63537;DHT22;49686;51.880;5.632;2023-07-20T02:57:40;13.80;99.90
63537;DHT22;49686;51.880;5.632;2023-07-20T03:00:07;13.80;99.90
63537;DHT22;49686;51.880;5.632;2023-07-20T03:02:34;13.70;99.90
63537;DHT22;49686;51.880;5.632;2023-07-20T03:05:02;13.70;99.90
63537;DHT22;49686;51.880;5.632;2023-07-20T03:07:29;13.60;99.90
63537;DHT22;49686;51.880;5.632;2023-07-20T03:09:55;13.60;99.90
63537;DHT22;49686;51.880;5.632;2023-07-20T03:12:22;13.60;99.90
63537;DHT22;49686;51.880;5.632;2023-07-20T03:14:50;13.60;99.90
63537;DHT22;49686;51.880;5.632;2023-07-20T03:17:17;13.50;99.90
63537;DHT22;49686;51.880;5.632;2023-07-20T03:19:44;13.60;99.90
63537;DHT22;49686;51.880;5.632;2023-07-20T03:22:11;13.60;99.90
63537;DHT22;49686;51.880;5.632;2023-07-20T03:24:38;13.60;99.90
63537;DHT22;49686;51.880;5.632;2023-07-20T03:27:05;13.60;99.90
63537;DHT22;49686;51.880;5.632;2023-07-20T03:29:32;13.60;99.90
63537;DHT22;49686;51.880;5.632;2023-07-20T03:32:00;13.60;99.90
63537;DHT22;49686;51.880;5.632;2023-07-20T03:34:27;13.60;99.90
63537;DHT22;49686;51.880;5.632;2023-07-20T03:36:54;13.50;99.90
63537;DHT22;49686;51.880;5.632;2023-07-20T03:39:22;13.50;99.90
63537;DHT22;49686;51.880;5.632;2023-07-20T03:41:49;13.50;99.90
63537;DHT22;49686;51.880;5.632;2023-07-20T03:44:16;13.50;99.90
63537;DHT22;49686;51.880;5.632;2023-07-20T03:46:43;13.50;99.90
63537;DHT22;49686;51.880;5.632;2023-07-20T03:49:11;13.50;99.90
63537;DHT22;49686;51.880;5.632;2023-07-20T03:51:38;13.40;99.90
63537;DHT22;49686;51.880;5.632;2023-07-20T03:54:05;13.40;99.90
63537;DHT22;49686;51.880;5.632;2023-07-20T03:56:32;13.40;99.90
63537;DHT22;49686;51.880;5.632;2023-07-20T03:58:59;13.40;99.90
63537;DHT22;49686;51.880;5.632;2023-07-20T04:01:26;13.40;99.90
63537;DHT22;49686;51.880;5.632;2023-07-20T04:03:52;13.40;99.90
63537;DHT22;49686;51.880;5.632;2023-07-20T04:06:21;13.40;99.90
63537;DHT22;49686;51.880;5.632;2023-07-20T04:08:48;13.40;99.90
63537;DHT22;49686;51.880;5.632;2023-07-20T04:11:15;13.40;99.90
63537;DHT22;49686;51.880;5.632;2023-07-20T04:13:41;13.40;99.90
63537;DHT22;49686;51.880;5.632;2023-07-20T04:16:08;13.40;99.90
63537;DHT22;49686;51.880;5.632;2023-07-20T04:18:35;13.50;99.90
63537;DHT22;49686;51.880;5.632;2023-07-20T04:21:02;13.50;99.90
63537;DHT22;49686;51.880;5.632;2023-07-20T04:23:30;13.50;99.90
63537;DHT22;49686;51.880;5.632;2023-07-20T04:25:57;13.50;99.90
63537;DHT22;49686;51.880;5.632;2023-07-20T04:28:24;13.60;99.90
63537;DHT22;49686;51.880;5.632;2023-07-20T04:30:51;13.60;99.90
63537;DHT22;49686;51.880;5.632;2023-07-20T04:33:18;13.70;99.90
63537;DHT22;49686;51.880;5.632;2023-07-20T04:35:48;14.10;99.90
63537;DHT22;49686;51.880;5.632;2023-07-20T04:38:15;14.80;99.90
63537;DHT22;49686;51.880;5.632;2023-07-20T04:40:44;15.80;99.90
63537;DHT22;49686;51.880;5.632;2023-07-20T04:43:11;16.70;99.90
63537;DHT22;49686;51.880;5.632;2023-07-20T04:45:38;17.70;99.90
63537;DHT22;49686;51.880;5.632;2023-07-20T04:48:11;18.30;99.90
63537;DHT22;49686;51.880;5.632;2023-07-20T04:50:39;19.00;99.90
63537;DHT22;49686;51.880;5.632;2023-07-20T04:53:06;19.40;99.90
63537;DHT22;49686;51.880;5.632;2023-07-20T04:55:33;19.70;99.90
63537;DHT22;49686;51.880;5.632;2023-07-20T04:58:02;20.00;99.90
63537;DHT22;49686;51.880;5.632;2023-07-20T05:00:29;20.30;99.90
63537;DHT22;49686;51.880;5.632;2023-07-20T05:02:56;20.00;99.90
63537;DHT22;49686;51.880;5.632;2023-07-20T05:05:23;19.10;99.90
63537;DHT22;49686;51.880;5.632;2023-07-20T05:07:50;18.30;99.90
63537;DHT22;49686;51.880;5.632;2023-07-20T05:10:17;17.60;99.90
63537;DHT22;49686;51.880;5.632;2023-07-20T05:12:44;17.10;99.90
63537;DHT22;49686;51.880;5.632;2023-07-20T05:15:12;16.60;99.90
63537;DHT22;49686;51.880;5.632;2023-07-20T05:17:40;16.30;99.90
63537;DHT22;49686;51.880;5.632;2023-07-20T05:20:07;16.10;99.90
63537;DHT22;49686;51.880;5.632;2023-07-20T05:22:35;16.20;99.90
63537;DHT22;49686;51.880;5.632;2023-07-20T05:25:02;16.60;99.90
63537;DHT22;49686;51.880;5.632;2023-07-20T05:27:29;16.70;99.90
63537;DHT22;49686;51.880;5.632;2023-07-20T05:29:55;16.60;99.90
63537;DHT22;49686;51.880;5.632;2023-07-20T05:32:24;16.40;99.90
63537;DHT22;49686;51.880;5.632;2023-07-20T05:34:52;16.20;99.90
63537;DHT22;49686;51.880;5.632;2023-07-20T05:37:19;16.00;99.90
63537;DHT22;49686;51.880;5.632;2023-07-20T05:39:46;16.40;99.90
63537;DHT22;49686;51.880;5.632;2023-07-20T05:42:12;17.20;99.90
63537;DHT22;49686;51.880;5.632;2023-07-20T05:44:40;18.30;99.90
63537;DHT22;49686;51.880;5.632;2023-07-20T05:47:07;19.60;99.90
63537;DHT22;49686;51.880;5.632;2023-07-20T05:49:36;20.70;99.90
63537;DHT22;49686;51.880;5.632;2023-07-20T05:52:03;21.50;99.90
63537;DHT22;49686;51.880;5.632;2023-07-20T05:54:30;21.70;99.90
63537;DHT22;49686;51.880;5.632;2023-07-20T05:56:56;21.80;99.90
63537;DHT22;49686;51.880;5.632;2023-07-20T05:59:24;21.40;99.90
63537;DHT22;49686;51.880;5.632;2023-07-20T06:01:51;21.20;99.90
63537;DHT22;49686;51.880;5.632;2023-07-20T06:04:18;21.80;99.90
63537;DHT22;49686;51.880;5.632;2023-07-20T06:06:46;22.70;99.90
63537;DHT22;49686;51.880;5.632;2023-07-20T06:09:13;22.30;99.90
63537;DHT22;49686;51.880;5.632;2023-07-20T06:11:40;22.10;99.90
63537;DHT22;49686;51.880;5.632;2023-07-20T06:14:07;22.90;99.90
63537;DHT22;49686;51.880;5.632;2023-07-20T06:16:34;23.90;99.90
63537;DHT22;49686;51.880;5.632;2023-07-20T06:19:01;24.80;99.90
63537;DHT22;49686;51.880;5.632;2023-07-20T06:21:28;25.40;99.90
63537;DHT22;49686;51.880;5.632;2023-07-20T06:23:56;26.30;99.90
63537;DHT22;49686;51.880;5.632;2023-07-20T06:26:24;26.90;99.90
63537;DHT22;49686;51.880;5.632;2023-07-20T06:28:51;27.30;99.90
63537;DHT22;49686;51.880;5.632;2023-07-20T06:31:18;27.30;98.70
63537;DHT22;49686;51.880;5.632;2023-07-20T06:33:45;26.90;98.30
63537;DHT22;49686;51.880;5.632;2023-07-20T06:36:12;26.20;99.80
63537;DHT22;49686;51.880;5.632;2023-07-20T06:38:39;24.90;99.90
63537;DHT22;49686;51.880;5.632;2023-07-20T06:41:07;24.90;99.90
63537;DHT22;49686;51.880;5.632;2023-07-20T06:43:37;25.90;99.90
63537;DHT22;49686;51.880;5.632;2023-07-20T06:46:06;25.00;99.90
63537;DHT22;49686;51.880;5.632;2023-07-20T06:48:33;24.80;99.90
63537;DHT22;49686;51.880;5.632;2023-07-20T06:51:20;24.70;99.90
63537;DHT22;49686;51.880;5.632;2023-07-20T06:53:48;25.50;99.90
63537;DHT22;49686;51.880;5.632;2023-07-20T06:56:16;25.20;99.90
63537;DHT22;49686;51.880;5.632;2023-07-20T06:58:43;25.40;99.90
63537;DHT22;49686;51.880;5.632;2023-07-20T07:01:09;25.70;99.90
63537;DHT22;49686;51.880;5.632;2023-07-20T07:03:36;26.40;96.30
63537;DHT22;49686;51.880;5.632;2023-07-20T07:06:03;26.60;97.70
63537;DHT22;49686;51.880;5.632;2023-07-20T07:08:30;27.10;96.40
63537;DHT22;49686;51.880;5.632;2023-07-20T07:10:57;27.50;93.70
63537;DHT22;49686;51.880;5.632;2023-07-20T07:13:25;27.60;92.40
63537;DHT22;49686;51.880;5.632;2023-07-20T07:15:52;27.50;91.80
63537;DHT22;49686;51.880;5.632;2023-07-20T07:18:19;27.40;90.40
63537;DHT22;49686;51.880;5.632;2023-07-20T07:20:52;27.20;90.40
63537;DHT22;49686;51.880;5.632;2023-07-20T07:23:19;26.90;91.00
63537;DHT22;49686;51.880;5.632;2023-07-20T07:25:47;26.70;90.90
63537;DHT22;49686;51.880;5.632;2023-07-20T07:28:14;25.70;91.30
63537;DHT22;49686;51.880;5.632;2023-07-20T07:30:42;24.70;92.00
63537;DHT22;49686;51.880;5.632;2023-07-20T07:33:09;22.90;94.90
63537;DHT22;49686;51.880;5.632;2023-07-20T07:35:35;22.50;99.90
63537;DHT22;49686;51.880;5.632;2023-07-20T07:38:02;23.50;99.90
63537;DHT22;49686;51.880;5.632;2023-07-20T07:40:49;24.20;97.40
63537;DHT22;49686;51.880;5.632;2023-07-20T07:43:16;25.10;96.40
63537;DHT22;49686;51.880;5.632;2023-07-20T07:45:44;26.10;94.40
63537;DHT22;49686;51.880;5.632;2023-07-20T07:48:11;26.10;93.00
63537;DHT22;49686;51.880;5.632;2023-07-20T07:50:38;26.70;91.40
63537;DHT22;49686;51.880;5.632;2023-07-20T07:53:05;26.20;91.30
63537;DHT22;49686;51.880;5.632;2023-07-20T07:55:32;27.10;89.00
63537;DHT22;49686;51.880;5.632;2023-07-20T07:57:59;27.30;88.20
63537;DHT22;49686;51.880;5.632;2023-07-20T08:00:26;25.90;90.30
63537;DHT22;49686;51.880;5.632;2023-07-20T08:02:54;25.10;92.00
63537;DHT22;49686;51.880;5.632;2023-07-20T08:05:21;25.50;91.20
63537;DHT22;49686;51.880;5.632;2023-07-20T08:07:48;25.30;91.10
63537;DHT22;49686;51.880;5.632;2023-07-20T08:10:15;26.00;90.40
63537;DHT22;49686;51.880;5.632;2023-07-20T08:12:41;25.80;90.30
63537;DHT22;49686;51.880;5.632;2023-07-20T08:15:11;26.10;89.90
63537;DHT22;49686;51.880;5.632;2023-07-20T08:17:38;26.00;88.30
63537;DHT22;49686;51.880;5.632;2023-07-20T08:20:07;25.20;90.00
63537;DHT22;49686;51.880;5.632;2023-07-20T08:22:34;25.20;90.70
63537;DHT22;49686;51.880;5.632;2023-07-20T08:25:01;25.80;90.90
63537;DHT22;49686;51.880;5.632;2023-07-20T08:27:28;26.00;90.20
63537;DHT22;49686;51.880;5.632;2023-07-20T08:29:55;25.70;90.40
63537;DHT22;49686;51.880;5.632;2023-07-20T08:32:23;26.40;90.00
63537;DHT22;49686;51.880;5.632;2023-07-20T08:34:51;25.90;90.00
63537;DHT22;49686;51.880;5.632;2023-07-20T08:37:20;25.80;90.30
63537;DHT22;49686;51.880;5.632;2023-07-20T08:39:46;25.80;90.00
63537;DHT22;49686;51.880;5.632;2023-07-20T08:42:14;25.80;89.00
63537;DHT22;49686;51.880;5.632;2023-07-20T08:44:42;26.20;86.70
63537;DHT22;49686;51.880;5.632;2023-07-20T08:47:10;26.00;88.10
63537;DHT22;49686;51.880;5.632;2023-07-20T08:49:39;25.40;88.20
63537;DHT22;49686;51.880;5.632;2023-07-20T08:52:07;24.40;90.20
63537;DHT22;49686;51.880;5.632;2023-07-20T08:54:35;23.30;91.00
63537;DHT22;49686;51.880;5.632;2023-07-20T08:57:04;22.70;91.90
63537;DHT22;49686;51.880;5.632;2023-07-20T08:59:31;22.10;93.30
63537;DHT22;49686;51.880;5.632;2023-07-20T09:01:59;22.10;94.30
63537;DHT22;49686;51.880;5.632;2023-07-20T09:04:26;22.50;93.80
63537;DHT22;49686;51.880;5.632;2023-07-20T09:06:53;22.80;93.40
63537;DHT22;49686;51.880;5.632;2023-07-20T09:09:20;22.90;92.50
63537;DHT22;49686;51.880;5.632;2023-07-20T09:11:49;23.30;92.60
63537;DHT22;49686;51.880;5.632;2023-07-20T09:14:16;24.40;91.50
63537;DHT22;49686;51.880;5.632;2023-07-20T09:16:47;24.80;90.40
63537;DHT22;49686;51.880;5.632;2023-07-20T09:19:15;24.80;90.40
63537;DHT22;49686;51.880;5.632;2023-07-20T09:21:44;24.50;90.80
63537;DHT22;49686;51.880;5.632;2023-07-20T09:24:11;24.30;90.70
63537;DHT22;49686;51.880;5.632;2023-07-20T09:26:41;24.00;91.00
63537;DHT22;49686;51.880;5.632;2023-07-20T09:29:10;24.00;89.70
63537;DHT22;49686;51.880;5.632;2023-07-20T09:31:37;23.70;90.20
63537;DHT22;49686;51.880;5.632;2023-07-20T09:34:07;23.70;90.70
63537;DHT22;49686;51.880;5.632;2023-07-20T09:36:35;23.80;90.40
63537;DHT22;49686;51.880;5.632;2023-07-20T09:39:05;24.00;89.60
63537;DHT22;49686;51.880;5.632;2023-07-20T09:41:40;23.70;89.00
63537;DHT22;49686;51.880;5.632;2023-07-20T09:44:14;23.60;90.10
63537;DHT22;49686;51.880;5.632;2023-07-20T09:46:45;23.90;89.60
63537;DHT22;49686;51.880;5.632;2023-07-20T09:49:17;24.20;89.20
63537;DHT22;49686;51.880;5.632;2023-07-20T09:51:47;24.60;88.40
63537;DHT22;49686;51.880;5.632;2023-07-20T09:54:15;25.20;86.50
63537;DHT22;49686;51.880;5.632;2023-07-20T09:56:42;25.90;86.00
63537;DHT22;49686;51.880;5.632;2023-07-20T09:59:09;26.50;83.70
63537;DHT22;49686;51.880;5.632;2023-07-20T10:01:40;25.90;83.70
63537;DHT22;49686;51.880;5.632;2023-07-20T10:04:09;25.50;87.50
63537;DHT22;49686;51.880;5.632;2023-07-20T10:06:41;25.30;85.10
63537;DHT22;49686;51.880;5.632;2023-07-20T10:09:10;25.20;85.00
63537;DHT22;49686;51.880;5.632;2023-07-20T10:11:42;25.20;84.90
63537;DHT22;49686;51.880;5.632;2023-07-20T10:14:12;25.00;84.60
63537;DHT22;49686;51.880;5.632;2023-07-20T10:16:50;23.60;85.70
63537;DHT22;49686;51.880;5.632;2023-07-20T10:19:23;23.30;89.50
63537;DHT22;49686;51.880;5.632;2023-07-20T10:21:57;23.20;90.10
63537;DHT22;49686;51.880;5.632;2023-07-20T10:24:31;22.90;90.00
63537;DHT22;49686;51.880;5.632;2023-07-20T10:26:58;22.30;90.70
63537;DHT22;49686;51.880;5.632;2023-07-20T10:29:25;22.10;91.20
63537;DHT22;49686;51.880;5.632;2023-07-20T10:31:54;21.80;92.60
63537;DHT22;49686;51.880;5.632;2023-07-20T10:34:22;21.60;94.00
63537;DHT22;49686;51.880;5.632;2023-07-20T10:36:49;21.30;95.60
63537;DHT22;49686;51.880;5.632;2023-07-20T10:39:22;21.40;95.00
63537;DHT22;49686;51.880;5.632;2023-07-20T10:41:49;21.60;94.90
63537;DHT22;49686;51.880;5.632;2023-07-20T10:44:20;22.10;94.70
63537;DHT22;49686;51.880;5.632;2023-07-20T10:46:47;22.50;93.10
63537;DHT22;49686;51.880;5.632;2023-07-20T10:49:15;22.80;92.50
63537;DHT22;49686;51.880;5.632;2023-07-20T10:51:43;22.80;92.60
63537;DHT22;49686;51.880;5.632;2023-07-20T10:54:35;22.80;93.00
63537;DHT22;49686;51.880;5.632;2023-07-20T10:57:22;22.90;92.20
63537;DHT22;49686;51.880;5.632;2023-07-20T10:59:49;23.30;92.10
63537;DHT22;49686;51.880;5.632;2023-07-20T11:02:18;23.60;91.20
63537;DHT22;49686;51.880;5.632;2023-07-20T11:04:47;23.90;91.90
63537;DHT22;49686;51.880;5.632;2023-07-20T11:07:35;25.00;90.90
63537;DHT22;49686;51.880;5.632;2023-07-20T11:10:13;25.30;88.90
63537;DHT22;49686;51.880;5.632;2023-07-20T11:12:40;25.00;85.70
63537;DHT22;49686;51.880;5.632;2023-07-20T11:15:08;24.60;86.80
63537;DHT22;49686;51.880;5.632;2023-07-20T11:17:35;24.40;88.30
63537;DHT22;49686;51.880;5.632;2023-07-20T11:20:04;24.70;86.00
63537;DHT22;49686;51.880;5.632;2023-07-20T11:22:34;25.00;87.20
63537;DHT22;49686;51.880;5.632;2023-07-20T11:25:02;25.70;86.10
63537;DHT22;49686;51.880;5.632;2023-07-20T11:27:29;24.80;85.40
63537;DHT22;49686;51.880;5.632;2023-07-20T11:29:56;23.10;89.70
63537;DHT22;49686;51.880;5.632;2023-07-20T11:32:23;23.10;90.20
63537;DHT22;49686;51.880;5.632;2023-07-20T11:34:50;24.00;88.40
63537;DHT22;49686;51.880;5.632;2023-07-20T11:37:19;24.60;86.10
63537;DHT22;49686;51.880;5.632;2023-07-20T11:39:46;25.20;87.50
63537;DHT22;49686;51.880;5.632;2023-07-20T11:42:13;25.90;83.70
63537;DHT22;49686;51.880;5.632;2023-07-20T11:45:02;25.90;83.00
63537;DHT22;49686;51.880;5.632;2023-07-20T11:47:29;25.40;85.70
63537;DHT22;49686;51.880;5.632;2023-07-20T11:50:03;25.60;84.90
63537;DHT22;49686;51.880;5.632;2023-07-20T11:52:31;26.10;84.60
63537;DHT22;49686;51.880;5.632;2023-07-20T11:54:58;26.20;84.60
63537;DHT22;49686;51.880;5.632;2023-07-20T11:57:26;25.90;84.30
63537;DHT22;49686;51.880;5.632;2023-07-20T11:59:54;25.50;82.60
63537;DHT22;49686;51.880;5.632;2023-07-20T12:02:21;25.30;84.20
63537;DHT22;49686;51.880;5.632;2023-07-20T12:04:48;25.30;84.30
63537;DHT22;49686;51.880;5.632;2023-07-20T12:07:15;25.50;84.70
63537;DHT22;49686;51.880;5.632;2023-07-20T12:09:43;25.60;83.00
63537;DHT22;49686;51.880;5.632;2023-07-20T12:12:18;25.40;84.90
63537;DHT22;49686;51.880;5.632;2023-07-20T12:14:45;25.80;83.30
63537;DHT22;49686;51.880;5.632;2023-07-20T12:17:13;25.40;82.10
63537;DHT22;49686;51.880;5.632;2023-07-20T12:19:40;25.70;83.70
63537;DHT22;49686;51.880;5.632;2023-07-20T12:22:07;25.90;81.10
63537;DHT22;49686;51.880;5.632;2023-07-20T12:24:34;25.50;83.50
63537;DHT22;49686;51.880;5.632;2023-07-20T12:27:03;25.70;81.80
63537;DHT22;49686;51.880;5.632;2023-07-20T12:29:30;25.40;80.90
63537;DHT22;49686;51.880;5.632;2023-07-20T12:31:57;25.30;80.60
63537;DHT22;49686;51.880;5.632;2023-07-20T12:34:24;25.50;76.00
63537;DHT22;49686;51.880;5.632;2023-07-20T12:36:51;26.00;76.60
63537;DHT22;49686;51.880;5.632;2023-07-20T12:39:18;26.00;78.10
63537;DHT22;49686;51.880;5.632;2023-07-20T12:41:45;25.80;78.70
63537;DHT22;49686;51.880;5.632;2023-07-20T12:44:13;25.20;79.20
63537;DHT22;49686;51.880;5.632;2023-07-20T12:46:40;24.80;78.60
63537;DHT22;49686;51.880;5.632;2023-07-20T12:49:07;24.30;79.70
63537;DHT22;49686;51.880;5.632;2023-07-20T12:51:33;23.90;80.30
63537;DHT22;49686;51.880;5.632;2023-07-20T12:54:00;23.10;82.90
63537;DHT22;49686;51.880;5.632;2023-07-20T12:56:27;23.50;83.30
63537;DHT22;49686;51.880;5.632;2023-07-20T12:58:57;23.80;82.10
63537;DHT22;49686;51.880;5.632;2023-07-20T13:01:25;23.60;83.20
63537;DHT22;49686;51.880;5.632;2023-07-20T13:03:52;23.90;82.10
63537;DHT22;49686;51.880;5.632;2023-07-20T13:06:22;23.80;83.30
63537;DHT22;49686;51.880;5.632;2023-07-20T13:08:52;24.40;83.00
63537;DHT22;49686;51.880;5.632;2023-07-20T13:11:19;24.60;80.50
63537;DHT22;49686;51.880;5.632;2023-07-20T13:13:45;24.50;79.60
63537;DHT22;49686;51.880;5.632;2023-07-20T13:16:12;24.40;81.30
63537;DHT22;49686;51.880;5.632;2023-07-20T13:18:40;24.60;81.00
63537;DHT22;49686;51.880;5.632;2023-07-20T13:21:07;25.10;80.50
63537;DHT22;49686;51.880;5.632;2023-07-20T13:23:34;25.10;80.00
63537;DHT22;49686;51.880;5.632;2023-07-20T13:26:01;26.20;78.90
63537;DHT22;49686;51.880;5.632;2023-07-20T13:28:28;26.40;76.10
63537;DHT22;49686;51.880;5.632;2023-07-20T13:30:56;26.00;78.30
63537;DHT22;49686;51.880;5.632;2023-07-20T13:33:23;25.70;77.80
63537;DHT22;49686;51.880;5.632;2023-07-20T13:35:53;25.80;78.20
63537;DHT22;49686;51.880;5.632;2023-07-20T13:38:20;26.30;78.50
63537;DHT22;49686;51.880;5.632;2023-07-20T13:40:47;26.90;78.00
63537;DHT22;49686;51.880;5.632;2023-07-20T13:43:14;26.10;77.10
63537;DHT22;49686;51.880;5.632;2023-07-20T13:45:41;25.80;78.30
63537;DHT22;49686;51.880;5.632;2023-07-20T13:48:07;25.60;75.20
63537;DHT22;49686;51.880;5.632;2023-07-20T13:50:34;24.70;76.10
63537;DHT22;49686;51.880;5.632;2023-07-20T13:53:05;24.80;77.80
63537;DHT22;49686;51.880;5.632;2023-07-20T13:55:35;24.50;78.20
63537;DHT22;49686;51.880;5.632;2023-07-20T13:58:05;24.60;79.20
63537;DHT22;49686;51.880;5.632;2023-07-20T14:00:32;24.60;79.50
63537;DHT22;49686;51.880;5.632;2023-07-20T14:03:01;24.60;78.90
63537;DHT22;49686;51.880;5.632;2023-07-20T14:05:30;24.60;78.50
63537;DHT22;49686;51.880;5.632;2023-07-20T14:08:00;24.80;77.50
63537;DHT22;49686;51.880;5.632;2023-07-20T14:10:28;24.50;76.80
63537;DHT22;49686;51.880;5.632;2023-07-20T14:12:55;24.50;77.10
63537;DHT22;49686;51.880;5.632;2023-07-20T14:15:22;24.80;77.80
63537;DHT22;49686;51.880;5.632;2023-07-20T14:17:49;25.20;76.60
63537;DHT22;49686;51.880;5.632;2023-07-20T14:20:16;25.40;75.30
63537;DHT22;49686;51.880;5.632;2023-07-20T14:22:45;25.30;76.60
63537;DHT22;49686;51.880;5.632;2023-07-20T14:25:12;24.80;78.10
63537;DHT22;49686;51.880;5.632;2023-07-20T14:27:41;23.90;80.20
63537;DHT22;49686;51.880;5.632;2023-07-20T14:30:08;24.30;80.70
63537;DHT22;49686;51.880;5.632;2023-07-20T14:32:35;24.80;79.30
63537;DHT22;49686;51.880;5.632;2023-07-20T14:35:02;25.00;79.30
63537;DHT22;49686;51.880;5.632;2023-07-20T14:37:29;25.50;77.70
63537;DHT22;49686;51.880;5.632;2023-07-20T14:39:56;26.00;76.60
63537;DHT22;49686;51.880;5.632;2023-07-20T14:42:23;26.60;76.90
63537;DHT22;49686;51.880;5.632;2023-07-20T14:44:51;26.90;75.40
63537;DHT22;49686;51.880;5.632;2023-07-20T14:47:18;26.60;74.80
63537;DHT22;49686;51.880;5.632;2023-07-20T14:49:45;26.00;74.50
63537;DHT22;49686;51.880;5.632;2023-07-20T14:52:12;25.30;75.30
63537;DHT22;49686;51.880;5.632;2023-07-20T14:54:42;25.30;76.80
63537;DHT22;49686;51.880;5.632;2023-07-20T14:57:09;25.20;76.40
63537;DHT22;49686;51.880;5.632;2023-07-20T14:59:36;25.10;76.20
63537;DHT22;49686;51.880;5.632;2023-07-20T15:02:05;25.10;76.50
63537;DHT22;49686;51.880;5.632;2023-07-20T15:04:32;25.00;76.90
63537;DHT22;49686;51.880;5.632;2023-07-20T15:06:58;24.80;76.00
63537;DHT22;49686;51.880;5.632;2023-07-20T15:09:26;24.80;76.60
63537;DHT22;49686;51.880;5.632;2023-07-20T15:11:54;24.60;76.90
63537;DHT22;49686;51.880;5.632;2023-07-20T15:14:21;24.80;75.90
63537;DHT22;49686;51.880;5.632;2023-07-20T15:16:47;24.90;75.50
63537;DHT22;49686;51.880;5.632;2023-07-20T15:19:17;25.20;75.70
63537;DHT22;49686;51.880;5.632;2023-07-20T15:21:44;25.40;74.80
63537;DHT22;49686;51.880;5.632;2023-07-20T15:24:10;25.90;73.90
63537;DHT22;49686;51.880;5.632;2023-07-20T15:26:37;26.10;73.30
63537;DHT22;49686;51.880;5.632;2023-07-20T15:29:04;26.10;72.90
63537;DHT22;49686;51.880;5.632;2023-07-20T15:31:31;26.20;72.20
63537;DHT22;49686;51.880;5.632;2023-07-20T15:34:01;26.00;72.40
63537;DHT22;49686;51.880;5.632;2023-07-20T15:36:29;25.80;73.00